sensor_id;sensor_type;location;lat;lon;timestamp;P1;durP1;ratioP1;P2;durP2;ratioP2
77597;SDS011;66756;42.774;23.354;2023-04-03T00:01:12;9.00;;;5.05;;
77597;SDS011;66756;42.774;23.354;2023-04-03T00:03:38;8.15;;;4.22;;
77597;SDS011;66756;42.774;23.354;2023-04-03T00:06:06;7.72;;;4.43;;
77597;SDS011;66756;42.774;23.354;2023-04-03T00:08:33;7.13;;;4.50;;
77597;SDS011;66756;42.774;23.354;2023-04-03T00:10:59;6.75;;;4.57;;
77597;SDS011;66756;42.774;23.354;2023-04-03T00:13:26;6.30;;;4.38;;
77597;SDS011;66756;42.774;23.354;2023-04-03T00:15:52;9.70;;;4.78;;
77597;SDS011;66756;42.774;23.354;2023-04-03T00:18:18;7.97;;;3.75;;
77597;SDS011;66756;42.774;23.354;2023-04-03T00:20:44;6.28;;;4.13;;
77597;SDS011;66756;42.774;23.354;2023-04-03T00:23:10;5.38;;;4.00;;
77597;SDS011;66756;42.774;23.354;2023-04-03T00:25:36;8.25;;;3.83;;
77597;SDS011;66756;42.774;23.354;2023-04-03T00:28:03;9.00;;;6.60;;
77597;SDS011;66756;42.774;23.354;2023-04-03T00:30:29;15.70;;;11.65;;
77597;SDS011;66756;42.774;23.354;2023-04-03T00:32:55;11.63;;;7.35;;
77597;SDS011;66756;42.774;23.354;2023-04-03T00:35:21;10.02;;;6.45;;
77597;SDS011;66756;42.774;23.354;2023-04-03T00:37:48;7.40;;;5.10;;
77597;SDS011;66756;42.774;23.354;2023-04-03T00:40:16;8.60;;;4.65;;
77597;SDS011;66756;42.774;23.354;2023-04-03T00:42:42;5.70;;;3.85;;
77597;SDS011;66756;42.774;23.354;2023-04-03T00:47:41;4.65;;;2.80;;
77597;SDS011;66756;42.774;23.354;2023-04-03T00:50:07;7.53;;;3.95;;
77597;SDS011;66756;42.774;23.354;2023-04-03T00:52:34;5.90;;;3.80;;
77597;SDS011;66756;42.774;23.354;2023-04-03T00:55:01;5.70;;;3.75;;
77597;SDS011;66756;42.774;23.354;2023-04-03T00:57:28;8.65;;;3.67;;
77597;SDS011;66756;42.774;23.354;2023-04-03T00:59:57;6.43;;;4.20;;
77597;SDS011;66756;42.774;23.354;2023-04-03T01:02:25;7.38;;;4.63;;
77597;SDS011;66756;42.774;23.354;2023-04-03T01:04:51;6.25;;;3.97;;
77597;SDS011;66756;42.774;23.354;2023-04-03T01:07:23;6.32;;;4.03;;
77597;SDS011;66756;42.774;23.354;2023-04-03T01:09:53;5.93;;;3.42;;
77597;SDS011;66756;42.774;23.354;2023-04-03T01:12:21;5.28;;;3.53;;
77597;SDS011;66756;42.774;23.354;2023-04-03T01:14:54;7.97;;;3.90;;
77597;SDS011;66756;42.774;23.354;2023-04-03T01:20:13;5.13;;;3.30;;
77597;SDS011;66756;42.774;23.354;2023-04-03T01:23:21;6.07;;;3.63;;
77597;SDS011;66756;42.774;23.354;2023-04-03T01:25:38;5.68;;;3.58;;
77597;SDS011;66756;42.774;23.354;2023-04-03T01:28:05;6.28;;;3.92;;
77597;SDS011;66756;42.774;23.354;2023-04-03T01:30:33;5.55;;;3.53;;
77597;SDS011;66756;42.774;23.354;2023-04-03T01:33:00;6.35;;;3.72;;
77597;SDS011;66756;42.774;23.354;2023-04-03T01:35:26;5.40;;;3.65;;
77597;SDS011;66756;42.774;23.354;2023-04-03T01:37:52;5.45;;;3.50;;
77597;SDS011;66756;42.774;23.354;2023-04-03T01:40:18;4.10;;;2.85;;
77597;SDS011;66756;42.774;23.354;2023-04-03T01:42:44;3.95;;;2.88;;
77597;SDS011;66756;42.774;23.354;2023-04-03T01:45:10;6.20;;;3.42;;
77597;SDS011;66756;42.774;23.354;2023-04-03T01:47:36;8.20;;;2.72;;
77597;SDS011;66756;42.774;23.354;2023-04-03T01:50:03;5.45;;;3.30;;
77597;SDS011;66756;42.774;23.354;2023-04-03T01:52:29;5.88;;;3.05;;
77597;SDS011;66756;42.774;23.354;2023-04-03T01:54:55;7.30;;;3.05;;
77597;SDS011;66756;42.774;23.354;2023-04-03T01:57:21;4.90;;;3.90;;
77597;SDS011;66756;42.774;23.354;2023-04-03T01:59:47;4.75;;;2.92;;
77597;SDS011;66756;42.774;23.354;2023-04-03T02:02:13;5.47;;;3.42;;
77597;SDS011;66756;42.774;23.354;2023-04-03T02:04:40;5.03;;;3.35;;
77597;SDS011;66756;42.774;23.354;2023-04-03T02:07:06;5.25;;;3.50;;
77597;SDS011;66756;42.774;23.354;2023-04-03T02:09:32;4.90;;;2.78;;
77597;SDS011;66756;42.774;23.354;2023-04-03T02:11:58;4.68;;;2.60;;
77597;SDS011;66756;42.774;23.354;2023-04-03T02:14:24;5.82;;;2.58;;
77597;SDS011;66756;42.774;23.354;2023-04-03T02:16:52;5.93;;;3.10;;
77597;SDS011;66756;42.774;23.354;2023-04-03T02:19:18;4.72;;;3.40;;
77597;SDS011;66756;42.774;23.354;2023-04-03T02:21:44;4.32;;;3.47;;
77597;SDS011;66756;42.774;23.354;2023-04-03T02:24:10;5.70;;;3.00;;
77597;SDS011;66756;42.774;23.354;2023-04-03T02:26:36;5.20;;;2.65;;
77597;SDS011;66756;42.774;23.354;2023-04-03T02:29:02;4.85;;;3.25;;
77597;SDS011;66756;42.774;23.354;2023-04-03T02:31:28;7.00;;;4.38;;
77597;SDS011;66756;42.774;23.354;2023-04-03T02:33:54;4.22;;;3.40;;
77597;SDS011;66756;42.774;23.354;2023-04-03T02:36:20;6.68;;;3.53;;
77597;SDS011;66756;42.774;23.354;2023-04-03T02:38:46;4.85;;;3.55;;
77597;SDS011;66756;42.774;23.354;2023-04-03T02:41:13;4.82;;;3.03;;
77597;SDS011;66756;42.774;23.354;2023-04-03T02:43:39;6.32;;;3.25;;
77597;SDS011;66756;42.774;23.354;2023-04-03T02:46:06;5.47;;;3.85;;
77597;SDS011;66756;42.774;23.354;2023-04-03T02:48:32;5.20;;;3.20;;
77597;SDS011;66756;42.774;23.354;2023-04-03T02:50:58;7.28;;;3.53;;
77597;SDS011;66756;42.774;23.354;2023-04-03T02:53:24;6.85;;;3.22;;
77597;SDS011;66756;42.774;23.354;2023-04-03T02:55:50;4.82;;;2.83;;
77597;SDS011;66756;42.774;23.354;2023-04-03T02:58:16;4.68;;;3.35;;
77597;SDS011;66756;42.774;23.354;2023-04-03T03:00:42;6.65;;;3.20;;
77597;SDS011;66756;42.774;23.354;2023-04-03T03:03:08;6.80;;;3.40;;
77597;SDS011;66756;42.774;23.354;2023-04-03T03:05:35;6.05;;;3.67;;
77597;SDS011;66756;42.774;23.354;2023-04-03T03:08:01;4.90;;;3.50;;
77597;SDS011;66756;42.774;23.354;2023-04-03T03:10:27;7.50;;;4.13;;
77597;SDS011;66756;42.774;23.354;2023-04-03T03:12:53;5.15;;;3.85;;
77597;SDS011;66756;42.774;23.354;2023-04-03T03:15:19;6.25;;;3.30;;
77597;SDS011;66756;42.774;23.354;2023-04-03T03:17:45;6.88;;;4.88;;
77597;SDS011;66756;42.774;23.354;2023-04-03T03:20:11;10.07;;;5.15;;
77597;SDS011;66756;42.774;23.354;2023-04-03T03:22:40;10.98;;;6.95;;
77597;SDS011;66756;42.774;23.354;2023-04-03T03:25:06;10.10;;;6.60;;
77597;SDS011;66756;42.774;23.354;2023-04-03T03:27:32;9.85;;;6.93;;
77597;SDS011;66756;42.774;23.354;2023-04-03T03:29:58;12.63;;;8.13;;
77597;SDS011;66756;42.774;23.354;2023-04-03T03:32:24;13.50;;;10.25;;
77597;SDS011;66756;42.774;23.354;2023-04-03T03:34:50;15.68;;;9.25;;
77597;SDS011;66756;42.774;23.354;2023-04-03T03:37:16;13.13;;;9.57;;
77597;SDS011;66756;42.774;23.354;2023-04-03T03:39:42;17.75;;;11.63;;
77597;SDS011;66756;42.774;23.354;2023-04-03T03:42:08;22.77;;;13.75;;
77597;SDS011;66756;42.774;23.354;2023-04-03T03:44:34;22.73;;;10.60;;
77597;SDS011;66756;42.774;23.354;2023-04-03T03:47:00;17.40;;;10.57;;
77597;SDS011;66756;42.774;23.354;2023-04-03T03:49:27;11.80;;;8.32;;
77597;SDS011;66756;42.774;23.354;2023-04-03T03:51:54;9.93;;;6.35;;
77597;SDS011;66756;42.774;23.354;2023-04-03T03:54:20;10.48;;;6.85;;
77597;SDS011;66756;42.774;23.354;2023-04-03T03:56:46;13.02;;;7.70;;
77597;SDS011;66756;42.774;23.354;2023-04-03T03:59:12;10.68;;;7.88;;
77597;SDS011;66756;42.774;23.354;2023-04-03T04:01:38;11.88;;;7.78;;
77597;SDS011;66756;42.774;23.354;2023-04-03T04:04:04;11.52;;;6.28;;
77597;SDS011;66756;42.774;23.354;2023-04-03T04:06:30;11.35;;;7.53;;
77597;SDS011;66756;42.774;23.354;2023-04-03T04:08:56;12.75;;;6.88;;
77597;SDS011;66756;42.774;23.354;2023-04-03T04:11:22;8.02;;;5.97;;
77597;SDS011;66756;42.774;23.354;2023-04-03T04:13:48;8.70;;;4.32;;
77597;SDS011;66756;42.774;23.354;2023-04-03T04:16:14;11.27;;;6.95;;
77597;SDS011;66756;42.774;23.354;2023-04-03T04:18:40;11.40;;;7.65;;
77597;SDS011;66756;42.774;23.354;2023-04-03T04:21:06;10.27;;;6.68;;
77597;SDS011;66756;42.774;23.354;2023-04-03T04:23:32;11.40;;;7.43;;
77597;SDS011;66756;42.774;23.354;2023-04-03T04:25:58;9.63;;;6.47;;
77597;SDS011;66756;42.774;23.354;2023-04-03T04:28:25;9.05;;;6.13;;
77597;SDS011;66756;42.774;23.354;2023-04-03T04:30:51;7.80;;;4.25;;
77597;SDS011;66756;42.774;23.354;2023-04-03T04:33:17;7.45;;;4.90;;
77597;SDS011;66756;42.774;23.354;2023-04-03T04:35:43;8.18;;;4.70;;
77597;SDS011;66756;42.774;23.354;2023-04-03T04:38:09;5.97;;;4.70;;
77597;SDS011;66756;42.774;23.354;2023-04-03T04:40:35;8.45;;;5.88;;
77597;SDS011;66756;42.774;23.354;2023-04-03T04:43:02;8.43;;;4.45;;
77597;SDS011;66756;42.774;23.354;2023-04-03T04:45:28;6.10;;;4.10;;
77597;SDS011;66756;42.774;23.354;2023-04-03T04:47:55;8.68;;;5.28;;
77597;SDS011;66756;42.774;23.354;2023-04-03T04:50:21;10.98;;;5.85;;
77597;SDS011;66756;42.774;23.354;2023-04-03T04:52:47;6.93;;;5.78;;
77597;SDS011;66756;42.774;23.354;2023-04-03T04:55:13;8.02;;;5.10;;
77597;SDS011;66756;42.774;23.354;2023-04-03T04:57:39;8.90;;;5.07;;
77597;SDS011;66756;42.774;23.354;2023-04-03T05:00:05;8.52;;;5.25;;
77597;SDS011;66756;42.774;23.354;2023-04-03T05:02:32;6.32;;;4.72;;
77597;SDS011;66756;42.774;23.354;2023-04-03T05:04:58;7.57;;;5.43;;
77597;SDS011;66756;42.774;23.354;2023-04-03T05:07:24;8.05;;;5.43;;
77597;SDS011;66756;42.774;23.354;2023-04-03T05:09:50;8.05;;;4.82;;
77597;SDS011;66756;42.774;23.354;2023-04-03T05:12:16;8.95;;;5.55;;
77597;SDS011;66756;42.774;23.354;2023-04-03T05:14:42;6.93;;;5.43;;
77597;SDS011;66756;42.774;23.354;2023-04-03T05:17:08;10.20;;;6.53;;
77597;SDS011;66756;42.774;23.354;2023-04-03T05:19:34;9.48;;;6.97;;
77597;SDS011;66756;42.774;23.354;2023-04-03T05:22:00;10.25;;;7.78;;
77597;SDS011;66756;42.774;23.354;2023-04-03T05:24:27;12.18;;;7.65;;
77597;SDS011;66756;42.774;23.354;2023-04-03T05:26:53;11.15;;;7.57;;
77597;SDS011;66756;42.774;23.354;2023-04-03T05:29:20;10.82;;;7.72;;
77597;SDS011;66756;42.774;23.354;2023-04-03T05:31:48;10.57;;;5.82;;
77597;SDS011;66756;42.774;23.354;2023-04-03T05:34:14;9.90;;;7.00;;
77597;SDS011;66756;42.774;23.354;2023-04-03T05:36:40;8.60;;;5.88;;
77597;SDS011;66756;42.774;23.354;2023-04-03T05:39:06;10.13;;;6.60;;
77597;SDS011;66756;42.774;23.354;2023-04-03T05:41:32;10.55;;;5.82;;
77597;SDS011;66756;42.774;23.354;2023-04-03T05:43:58;10.50;;;6.97;;
77597;SDS011;66756;42.774;23.354;2023-04-03T05:46:24;11.27;;;7.85;;
77597;SDS011;66756;42.774;23.354;2023-04-03T05:48:50;10.20;;;8.73;;
77597;SDS011;66756;42.774;23.354;2023-04-03T05:51:17;10.68;;;8.18;;
77597;SDS011;66756;42.774;23.354;2023-04-03T05:53:44;11.60;;;9.45;;
77597;SDS011;66756;42.774;23.354;2023-04-03T05:56:10;12.32;;;8.40;;
77597;SDS011;66756;42.774;23.354;2023-04-03T05:58:37;9.20;;;7.65;;
77597;SDS011;66756;42.774;23.354;2023-04-03T06:01:04;9.35;;;6.65;;
77597;SDS011;66756;42.774;23.354;2023-04-03T06:03:30;9.82;;;6.53;;
77597;SDS011;66756;42.774;23.354;2023-04-03T06:05:56;11.90;;;9.20;;
77597;SDS011;66756;42.774;23.354;2023-04-03T06:08:22;7.55;;;5.95;;
77597;SDS011;66756;42.774;23.354;2023-04-03T06:10:49;9.40;;;6.75;;
77597;SDS011;66756;42.774;23.354;2023-04-03T06:13:16;9.88;;;7.20;;
77597;SDS011;66756;42.774;23.354;2023-04-03T06:15:42;13.23;;;8.43;;
77597;SDS011;66756;42.774;23.354;2023-04-03T06:18:09;9.23;;;6.57;;
77597;SDS011;66756;42.774;23.354;2023-04-03T06:20:35;12.00;;;7.82;;
77597;SDS011;66756;42.774;23.354;2023-04-03T06:23:02;13.38;;;7.70;;
77597;SDS011;66756;42.774;23.354;2023-04-03T06:25:28;10.73;;;6.47;;
77597;SDS011;66756;42.774;23.354;2023-04-03T06:27:54;9.23;;;6.47;;
77597;SDS011;66756;42.774;23.354;2023-04-03T06:30:20;10.65;;;7.65;;
77597;SDS011;66756;42.774;23.354;2023-04-03T06:32:46;13.70;;;8.25;;
77597;SDS011;66756;42.774;23.354;2023-04-03T06:35:12;12.15;;;7.82;;
77597;SDS011;66756;42.774;23.354;2023-04-03T06:37:39;11.07;;;7.45;;
77597;SDS011;66756;42.774;23.354;2023-04-03T06:40:05;9.05;;;6.22;;
77597;SDS011;66756;42.774;23.354;2023-04-03T06:42:32;9.93;;;6.35;;
77597;SDS011;66756;42.774;23.354;2023-04-03T06:44:58;10.55;;;6.13;;
77597;SDS011;66756;42.774;23.354;2023-04-03T06:47:25;10.35;;;6.32;;
77597;SDS011;66756;42.774;23.354;2023-04-03T06:49:51;10.23;;;6.53;;
77597;SDS011;66756;42.774;23.354;2023-04-03T06:52:17;7.78;;;5.75;;
77597;SDS011;66756;42.774;23.354;2023-04-03T06:54:43;8.65;;;6.47;;
77597;SDS011;66756;42.774;23.354;2023-04-03T06:57:09;8.15;;;5.47;;
77597;SDS011;66756;42.774;23.354;2023-04-03T06:59:35;6.70;;;4.93;;
77597;SDS011;66756;42.774;23.354;2023-04-03T07:02:02;6.32;;;4.78;;
77597;SDS011;66756;42.774;23.354;2023-04-03T07:04:28;10.70;;;5.10;;
77597;SDS011;66756;42.774;23.354;2023-04-03T07:06:54;6.88;;;5.53;;
77597;SDS011;66756;42.774;23.354;2023-04-03T07:09:20;8.23;;;5.78;;
77597;SDS011;66756;42.774;23.354;2023-04-03T07:11:46;8.93;;;5.93;;
77597;SDS011;66756;42.774;23.354;2023-04-03T07:14:12;10.43;;;6.75;;
77597;SDS011;66756;42.774;23.354;2023-04-03T07:16:38;10.02;;;7.22;;
77597;SDS011;66756;42.774;23.354;2023-04-03T07:19:04;8.60;;;6.38;;
77597;SDS011;66756;42.774;23.354;2023-04-03T07:21:30;8.25;;;6.28;;
77597;SDS011;66756;42.774;23.354;2023-04-03T07:23:56;10.02;;;6.95;;
77597;SDS011;66756;42.774;23.354;2023-04-03T07:26:23;8.35;;;7.55;;
77597;SDS011;66756;42.774;23.354;2023-04-03T07:28:49;12.00;;;6.65;;
77597;SDS011;66756;42.774;23.354;2023-04-03T07:31:15;9.70;;;7.88;;
77597;SDS011;66756;42.774;23.354;2023-04-03T07:33:42;10.00;;;7.88;;
77597;SDS011;66756;42.774;23.354;2023-04-03T07:36:09;12.90;;;10.32;;
77597;SDS011;66756;42.774;23.354;2023-04-03T07:38:36;12.68;;;10.27;;
77597;SDS011;66756;42.774;23.354;2023-04-03T07:41:03;10.27;;;8.02;;
77597;SDS011;66756;42.774;23.354;2023-04-03T07:43:29;13.10;;;9.80;;
77597;SDS011;66756;42.774;23.354;2023-04-03T07:45:55;10.40;;;8.32;;
77597;SDS011;66756;42.774;23.354;2023-04-03T07:48:22;10.57;;;8.45;;
77597;SDS011;66756;42.774;23.354;2023-04-03T07:50:48;8.75;;;7.60;;
77597;SDS011;66756;42.774;23.354;2023-04-03T07:53:14;11.82;;;5.72;;
77597;SDS011;66756;42.774;23.354;2023-04-03T07:55:41;7.97;;;5.88;;
77597;SDS011;66756;42.774;23.354;2023-04-03T07:58:10;8.73;;;6.65;;
77597;SDS011;66756;42.774;23.354;2023-04-03T08:00:37;7.65;;;5.53;;
77597;SDS011;66756;42.774;23.354;2023-04-03T08:03:03;6.70;;;6.10;;
77597;SDS011;66756;42.774;23.354;2023-04-03T08:05:30;4.88;;;4.22;;
77597;SDS011;66756;42.774;23.354;2023-04-03T08:07:56;6.25;;;5.25;;
77597;SDS011;66756;42.774;23.354;2023-04-03T08:10:22;6.10;;;5.10;;
77597;SDS011;66756;42.774;23.354;2023-04-03T08:12:48;6.13;;;4.97;;
77597;SDS011;66756;42.774;23.354;2023-04-03T08:15:14;5.30;;;3.92;;
77597;SDS011;66756;42.774;23.354;2023-04-03T08:17:41;5.72;;;4.47;;
77597;SDS011;66756;42.774;23.354;2023-04-03T08:20:07;6.00;;;4.22;;
77597;SDS011;66756;42.774;23.354;2023-04-03T08:22:34;4.55;;;3.72;;
77597;SDS011;66756;42.774;23.354;2023-04-03T08:25:00;5.35;;;4.20;;
77597;SDS011;66756;42.774;23.354;2023-04-03T08:27:26;4.97;;;3.90;;
77597;SDS011;66756;42.774;23.354;2023-04-03T08:29:53;6.70;;;5.38;;
77597;SDS011;66756;42.774;23.354;2023-04-03T08:32:19;8.35;;;6.05;;
77597;SDS011;66756;42.774;23.354;2023-04-03T08:34:45;5.97;;;5.10;;
77597;SDS011;66756;42.774;23.354;2023-04-03T08:37:11;6.05;;;4.65;;
77597;SDS011;66756;42.774;23.354;2023-04-03T08:39:38;7.10;;;5.30;;
77597;SDS011;66756;42.774;23.354;2023-04-03T08:42:23;7.88;;;5.15;;
77597;SDS011;66756;42.774;23.354;2023-04-03T08:49:59;4.88;;;3.50;;
77597;SDS011;66756;42.774;23.354;2023-04-03T08:54:56;6.60;;;4.45;;
77597;SDS011;66756;42.774;23.354;2023-04-03T08:59:49;6.70;;;4.50;;
77597;SDS011;66756;42.774;23.354;2023-04-03T09:02:26;5.18;;;4.68;;
77597;SDS011;66756;42.774;23.354;2023-04-03T09:04:55;5.72;;;5.15;;
77597;SDS011;66756;42.774;23.354;2023-04-03T09:07:24;6.25;;;4.35;;
77597;SDS011;66756;42.774;23.354;2023-04-03T09:09:51;6.40;;;3.70;;
77597;SDS011;66756;42.774;23.354;2023-04-03T09:12:21;5.60;;;3.63;;
77597;SDS011;66756;42.774;23.354;2023-04-03T09:22:42;5.97;;;4.10;;
77597;SDS011;66756;42.774;23.354;2023-04-03T09:25:16;5.50;;;4.18;;
77597;SDS011;66756;42.774;23.354;2023-04-03T09:27:43;5.93;;;4.50;;
77597;SDS011;66756;42.774;23.354;2023-04-03T09:30:13;6.70;;;4.55;;
77597;SDS011;66756;42.774;23.354;2023-04-03T09:32:40;8.00;;;4.15;;
77597;SDS011;66756;42.774;23.354;2023-04-03T09:35:25;6.07;;;2.92;;
77597;SDS011;66756;42.774;23.354;2023-04-03T09:38:02;8.27;;;5.05;;
77597;SDS011;66756;42.774;23.354;2023-04-03T09:40:48;4.75;;;4.18;;
77597;SDS011;66756;42.774;23.354;2023-04-03T09:45:46;10.70;;;4.97;;
77597;SDS011;66756;42.774;23.354;2023-04-03T09:51:00;5.22;;;3.97;;
77597;SDS011;66756;42.774;23.354;2023-04-03T09:53:33;5.35;;;3.38;;
77597;SDS011;66756;42.774;23.354;2023-04-03T09:56:00;5.07;;;3.90;;
77597;SDS011;66756;42.774;23.354;2023-04-03T09:58:37;4.75;;;3.38;;
77597;SDS011;66756;42.774;23.354;2023-04-03T10:01:05;9.63;;;4.60;;
77597;SDS011;66756;42.774;23.354;2023-04-03T10:03:33;11.13;;;6.47;;
77597;SDS011;66756;42.774;23.354;2023-04-03T10:06:00;7.53;;;4.93;;
77597;SDS011;66756;42.774;23.354;2023-04-03T10:08:30;6.97;;;4.00;;
77597;SDS011;66756;42.774;23.354;2023-04-03T10:13:51;7.43;;;4.00;;
77597;SDS011;66756;42.774;23.354;2023-04-03T10:16:20;5.00;;;3.85;;
77597;SDS011;66756;42.774;23.354;2023-04-03T10:32:03;6.85;;;6.00;;
77597;SDS011;66756;42.774;23.354;2023-04-03T10:34:41;5.97;;;4.70;;
77597;SDS011;66756;42.774;23.354;2023-04-03T10:39:38;6.13;;;5.32;;
77597;SDS011;66756;42.774;23.354;2023-04-03T10:47:34;5.15;;;4.07;;
77597;SDS011;66756;42.774;23.354;2023-04-03T10:50:12;6.97;;;5.40;;
77597;SDS011;66756;42.774;23.354;2023-04-03T10:57:39;4.78;;;3.17;;
77597;SDS011;66756;42.774;23.354;2023-04-03T11:00:14;7.25;;;3.28;;
77597;SDS011;66756;42.774;23.354;2023-04-03T11:02:49;5.57;;;3.38;;
77597;SDS011;66756;42.774;23.354;2023-04-03T11:05:31;5.03;;;3.58;;
77597;SDS011;66756;42.774;23.354;2023-04-03T11:08:02;4.10;;;2.22;;
77597;SDS011;66756;42.774;23.354;2023-04-03T11:10:48;5.57;;;2.80;;
77597;SDS011;66756;42.774;23.354;2023-04-03T11:15:42;5.38;;;2.05;;
77597;SDS011;66756;42.774;23.354;2023-04-03T11:18:18;4.60;;;3.17;;
77597;SDS011;66756;42.774;23.354;2023-04-03T11:20:48;7.97;;;6.03;;
77597;SDS011;66756;42.774;23.354;2023-04-03T11:25:42;9.07;;;4.78;;
77597;SDS011;66756;42.774;23.354;2023-04-03T11:28:12;6.85;;;4.65;;
77597;SDS011;66756;42.774;23.354;2023-04-03T11:30:54;11.65;;;4.78;;
77597;SDS011;66756;42.774;23.354;2023-04-03T11:33:43;10.65;;;7.70;;
77597;SDS011;66756;42.774;23.354;2023-04-03T11:36:24;13.93;;;10.30;;
77597;SDS011;66756;42.774;23.354;2023-04-03T11:38:52;14.07;;;9.48;;
77597;SDS011;66756;42.774;23.354;2023-04-03T11:41:24;14.18;;;9.50;;
77597;SDS011;66756;42.774;23.354;2023-04-03T11:43:55;12.98;;;9.68;;
77597;SDS011;66756;42.774;23.354;2023-04-03T11:46:22;10.98;;;7.57;;
77597;SDS011;66756;42.774;23.354;2023-04-03T11:48:49;10.25;;;7.80;;
77597;SDS011;66756;42.774;23.354;2023-04-03T11:53:54;8.85;;;7.97;;
77597;SDS011;66756;42.774;23.354;2023-04-03T11:59:25;7.88;;;6.95;;
77597;SDS011;66756;42.774;23.354;2023-04-03T12:01:51;10.10;;;8.38;;
77597;SDS011;66756;42.774;23.354;2023-04-03T12:04:19;9.80;;;7.65;;
77597;SDS011;66756;42.774;23.354;2023-04-03T12:11:57;6.50;;;5.40;;
77597;SDS011;66756;42.774;23.354;2023-04-03T12:14:24;5.43;;;3.40;;
77597;SDS011;66756;42.774;23.354;2023-04-03T12:16:52;3.75;;;3.10;;
77597;SDS011;66756;42.774;23.354;2023-04-03T12:19:33;4.70;;;3.08;;
77597;SDS011;66756;42.774;23.354;2023-04-03T12:24:26;5.78;;;4.72;;
77597;SDS011;66756;42.774;23.354;2023-04-03T12:45:23;10.63;;;7.03;;
77597;SDS011;66756;42.774;23.354;2023-04-03T12:47:51;8.88;;;6.30;;
77597;SDS011;66756;42.774;23.354;2023-04-03T12:50:18;7.25;;;4.85;;
77597;SDS011;66756;42.774;23.354;2023-04-03T12:52:48;6.80;;;4.82;;
77597;SDS011;66756;42.774;23.354;2023-04-03T12:55:16;6.03;;;4.25;;
77597;SDS011;66756;42.774;23.354;2023-04-03T12:57:42;7.63;;;5.93;;
77597;SDS011;66756;42.774;23.354;2023-04-03T13:03:05;8.05;;;5.80;;
77597;SDS011;66756;42.774;23.354;2023-04-03T13:05:32;8.27;;;5.22;;
77597;SDS011;66756;42.774;23.354;2023-04-03T13:07:59;7.45;;;4.53;;
77597;SDS011;66756;42.774;23.354;2023-04-03T13:10:27;5.18;;;4.20;;
77597;SDS011;66756;42.774;23.354;2023-04-03T13:12:54;7.07;;;3.63;;
77597;SDS011;66756;42.774;23.354;2023-04-03T13:15:25;5.82;;;4.07;;
77597;SDS011;66756;42.774;23.354;2023-04-03T13:17:52;6.03;;;3.17;;
77597;SDS011;66756;42.774;23.354;2023-04-03T13:20:23;3.40;;;3.05;;
77597;SDS011;66756;42.774;23.354;2023-04-03T13:23:10;4.13;;;2.08;;
77597;SDS011;66756;42.774;23.354;2023-04-03T13:25:37;4.30;;;2.80;;
77597;SDS011;66756;42.774;23.354;2023-04-03T13:28:06;4.20;;;2.55;;
77597;SDS011;66756;42.774;23.354;2023-04-03T13:30:33;2.40;;;1.92;;
77597;SDS011;66756;42.774;23.354;2023-04-03T13:33:02;3.28;;;1.80;;
77597;SDS011;66756;42.774;23.354;2023-04-03T13:38:00;2.65;;;2.45;;
77597;SDS011;66756;42.774;23.354;2023-04-03T13:40:27;7.38;;;2.45;;
77597;SDS011;66756;42.774;23.354;2023-04-03T13:43:04;9.27;;;3.47;;
77597;SDS011;66756;42.774;23.354;2023-04-03T13:45:31;25.13;;;8.25;;
77597;SDS011;66756;42.774;23.354;2023-04-03T13:48:17;18.40;;;6.70;;
77597;SDS011;66756;42.774;23.354;2023-04-03T13:50:57;15.77;;;6.78;;
77597;SDS011;66756;42.774;23.354;2023-04-03T13:53:24;18.70;;;9.43;;
77597;SDS011;66756;42.774;23.354;2023-04-03T13:56:04;10.13;;;5.55;;
77597;SDS011;66756;42.774;23.354;2023-04-03T13:58:31;14.63;;;7.15;;
77597;SDS011;66756;42.774;23.354;2023-04-03T14:05:55;5.25;;;4.20;;
77597;SDS011;66756;42.774;23.354;2023-04-03T14:08:21;6.55;;;3.97;;
77597;SDS011;66756;42.774;23.354;2023-04-03T14:10:48;6.10;;;3.60;;
77597;SDS011;66756;42.774;23.354;2023-04-03T14:13:15;4.00;;;2.70;;
77597;SDS011;66756;42.774;23.354;2023-04-03T14:15:41;3.85;;;2.45;;
77597;SDS011;66756;42.774;23.354;2023-04-03T14:18:11;3.78;;;2.30;;
77597;SDS011;66756;42.774;23.354;2023-04-03T14:20:37;5.20;;;3.58;;
77597;SDS011;66756;42.774;23.354;2023-04-03T14:23:03;5.60;;;3.25;;
77597;SDS011;66756;42.774;23.354;2023-04-03T14:25:29;3.78;;;2.92;;
77597;SDS011;66756;42.774;23.354;2023-04-03T14:27:55;7.72;;;4.05;;
77597;SDS011;66756;42.774;23.354;2023-04-03T14:30:24;4.90;;;4.05;;
77597;SDS011;66756;42.774;23.354;2023-04-03T14:32:50;3.67;;;2.88;;
77597;SDS011;66756;42.774;23.354;2023-04-03T14:35:17;5.97;;;3.15;;
77597;SDS011;66756;42.774;23.354;2023-04-03T14:37:43;6.13;;;3.90;;
77597;SDS011;66756;42.774;23.354;2023-04-03T14:40:12;3.47;;;2.75;;
77597;SDS011;66756;42.774;23.354;2023-04-03T14:42:40;3.22;;;2.75;;
77597;SDS011;66756;42.774;23.354;2023-04-03T14:45:08;5.95;;;4.05;;
77597;SDS011;66756;42.774;23.354;2023-04-03T14:47:37;9.10;;;8.18;;
77597;SDS011;66756;42.774;23.354;2023-04-03T14:50:07;11.65;;;8.82;;
77597;SDS011;66756;42.774;23.354;2023-04-03T14:52:34;8.93;;;7.45;;
77597;SDS011;66756;42.774;23.354;2023-04-03T14:55:02;8.00;;;6.00;;
77597;SDS011;66756;42.774;23.354;2023-04-03T14:57:29;4.90;;;4.13;;
77597;SDS011;66756;42.774;23.354;2023-04-03T14:59:55;6.63;;;3.78;;
77597;SDS011;66756;42.774;23.354;2023-04-03T15:04:54;6.90;;;3.95;;
77597;SDS011;66756;42.774;23.354;2023-04-03T15:07:21;3.65;;;2.78;;
77597;SDS011;66756;42.774;23.354;2023-04-03T15:09:47;6.03;;;3.92;;
77597;SDS011;66756;42.774;23.354;2023-04-03T15:12:13;15.43;;;6.95;;
77597;SDS011;66756;42.774;23.354;2023-04-03T15:14:39;13.30;;;7.40;;
77597;SDS011;66756;42.774;23.354;2023-04-03T15:17:05;9.02;;;5.43;;
77597;SDS011;66756;42.774;23.354;2023-04-03T15:19:35;6.38;;;4.85;;
77597;SDS011;66756;42.774;23.354;2023-04-03T15:22:01;8.57;;;5.80;;
77597;SDS011;66756;42.774;23.354;2023-04-03T15:24:27;8.10;;;5.78;;
77597;SDS011;66756;42.774;23.354;2023-04-03T15:26:53;17.60;;;9.23;;
77597;SDS011;66756;42.774;23.354;2023-04-03T15:29:20;31.63;;;15.02;;
77597;SDS011;66756;42.774;23.354;2023-04-03T15:31:46;30.17;;;17.20;;
77597;SDS011;66756;42.774;23.354;2023-04-03T15:34:14;23.92;;;12.07;;
77597;SDS011;66756;42.774;23.354;2023-04-03T15:36:41;33.58;;;19.48;;
77597;SDS011;66756;42.774;23.354;2023-04-03T15:39:07;16.17;;;10.38;;
77597;SDS011;66756;42.774;23.354;2023-04-03T15:41:33;18.65;;;9.98;;
77597;SDS011;66756;42.774;23.354;2023-04-03T15:43:59;20.05;;;12.15;;
77597;SDS011;66756;42.774;23.354;2023-04-03T15:46:25;13.73;;;7.13;;
77597;SDS011;66756;42.774;23.354;2023-04-03T15:48:51;20.08;;;11.38;;
77597;SDS011;66756;42.774;23.354;2023-04-03T15:51:17;12.85;;;8.43;;
77597;SDS011;66756;42.774;23.354;2023-04-03T15:53:43;8.85;;;7.03;;
77597;SDS011;66756;42.774;23.354;2023-04-03T15:56:09;11.15;;;7.05;;
77597;SDS011;66756;42.774;23.354;2023-04-03T15:58:37;9.65;;;7.32;;
77597;SDS011;66756;42.774;23.354;2023-04-03T16:01:03;12.82;;;10.48;;
77597;SDS011;66756;42.774;23.354;2023-04-03T16:03:29;18.05;;;11.35;;
77597;SDS011;66756;42.774;23.354;2023-04-03T16:05:55;17.02;;;13.00;;
77597;SDS011;66756;42.774;23.354;2023-04-03T16:08:21;12.88;;;8.45;;
77597;SDS011;66756;42.774;23.354;2023-04-03T16:10:48;17.08;;;11.43;;
77597;SDS011;66756;42.774;23.354;2023-04-03T16:13:14;13.20;;;9.27;;
77597;SDS011;66756;42.774;23.354;2023-04-03T16:15:40;20.55;;;12.13;;
77597;SDS011;66756;42.774;23.354;2023-04-03T16:18:07;8.73;;;6.53;;
77597;SDS011;66756;42.774;23.354;2023-04-03T16:20:34;7.03;;;4.82;;